Time;durP1;ratioP1;P1;durP2;ratioP2;P2;SDS_P1;SDS_P2;PMS_P1;PMS_P2;Temp;Humidity;BMP_temperature;BMP_pressure;BME280_temperature;BME280_humidity;BME280_pressure;Samples;Min_cycle;Max_cycle;Signal;HPM_P1;HPM_P2
2023/10/15 00:01:11;;;;;;;26.03;17.03;;;;;;;14.64;100.00;99686.86;1478021;87;21625;-75
2023/10/15 00:03:38;;;;;;;22.50;17.57;;;;;;;14.57;100.00;99687.33;1475101;87;22285;-75
2023/10/15 00:06:04;;;;;;;32.10;17.20;;;;;;;14.53;100.00;99690.03;1461029;88;22479;-76
2023/10/15 00:08:30;;;;;;;31.13;17.03;;;;;;;14.43;100.00;99693.81;1474915;87;21471;-75
2023/10/15 00:10:57;;;;;;;22.50;14.90;;;;;;;14.39;100.00;99685.91;1478519;87;21685;-76
2023/10/15 00:13:23;;;;;;;29.43;18.33;;;;;;;14.40;100.00;99688.05;1474870;87;22307;-76
2023/10/15 00:15:51;;;;;;;26.70;16.00;;;;;;;14.43;100.00;99687.16;1484683;87;21580;-76
2023/10/15 00:18:17;;;;;;;23.20;16.87;;;;;;;14.47;100.00;99682.27;1478000;87;21494;-77
2023/10/15 00:20:43;;;;;;;30.93;19.60;;;;;;;14.49;100.00;99682.91;1474843;87;22421;-76
2023/10/15 00:23:09;;;;;;;31.20;18.10;;;;;;;14.51;100.00;99692.88;1469510;88;21389;-77
2023/10/15 00:25:37;;;;;;;28.53;17.53;;;;;;;14.48;100.00;99693.77;1474406;88;22146;-77
2023/10/15 00:28:09;;;;;;;20.50;16.70;;;;;;;14.44;100.00;99691.48;1473894;88;22402;-77
2023/10/15 00:30:37;;;;;;;22.42;17.37;;;;;;;14.42;100.00;99692.17;1470786;87;21486;-77
2023/10/15 00:33:06;;;;;;;31.10;15.17;;;;;;;14.41;100.00;99691.88;1480690;87;21471;-78
2023/10/15 00:35:33;;;;;;;31.30;18.27;;;;;;;14.45;100.00;99690.47;1477191;87;22373;-77
2023/10/15 00:38:15;;;;;;;29.97;16.33;;;;;;;14.47;100.00;99688.11;1476023;87;21544;-77
2023/10/15 00:40:37;;;;;;;29.33;18.77;;;;;;;14.50;100.00;99682.40;1477997;88;21479;-77
2023/10/15 00:43:05;;;;;;;24.57;17.53;;;;;;;14.51;100.00;99680.89;1476157;87;21567;-77
2023/10/15 00:45:44;;;;;;;24.93;16.93;;;;;;;14.53;100.00;99682.05;1469063;87;21522;-75
2023/10/15 00:48:11;;;;;;;28.93;15.70;;;;;;;14.52;100.00;99678.56;1478056;87;21471;-76
2023/10/15 00:50:44;;;;;;;27.07;16.37;;;;;;;14.55;100.00;99676.03;1480929;87;21604;-75
2023/10/15 00:53:24;;;;;;;30.97;17.00;;;;;;;14.56;100.00;99677.70;1483642;87;21463;-75
2023/10/15 00:55:54;;;;;;;28.00;17.20;;;;;;;14.58;100.00;99678.31;1479291;87;22344;-75
2023/10/15 00:58:31;;;;;;;29.00;17.40;;;;;;;14.56;100.00;99675.86;1475873;87;22335;-75
2023/10/15 01:03:26;;;;;;;23.37;18.27;;;;;;;14.63;100.00;99679.89;1481171;87;21648;-75
2023/10/15 01:05:54;;;;;;;27.03;16.73;;;;;;;14.63;100.00;99689.22;1482878;87;21670;-75
2023/10/15 01:08:31;;;;;;;29.43;17.93;;;;;;;14.61;100.00;99689.91;1488765;87;22291;-76
2023/10/15 01:10:53;;;;;;;25.63;17.13;;;;;;;14.52;100.00;99699.87;1486119;87;21640;-75
2023/10/15 01:13:20;;;;;;;30.97;16.67;;;;;;;14.45;100.00;99702.44;1486768;87;22086;-75
2023/10/15 01:15:48;;;;;;;21.87;16.27;;;;;;;14.40;100.00;99710.69;1481322;87;21551;-75
2023/10/15 01:18:13;;;;;;;25.30;17.13;;;;;;;14.25;100.00;99718.73;1485917;87;22446;-76
2023/10/15 01:20:43;;;;;;;23.73;16.33;;;;;;;14.00;100.00;99753.64;1461755;88;21574;-75
2023/10/15 01:23:28;;;;;;;27.20;17.52;;;;;;;13.90;100.00;99748.31;1479922;88;21508;-75
2023/10/15 01:25:48;;;;;;;31.43;18.07;;;;;;;13.82;100.00;99751.89;1487366;87;22538;-75
2023/10/15 01:28:16;;;;;;;27.67;18.90;;;;;;;13.89;100.00;99746.13;1482025;87;21630;-75
2023/10/15 01:30:42;;;;;;;30.57;19.43;;;;;;;13.94;100.00;99746.92;1478184;87;21522;-76
2023/10/15 01:33:10;;;;;;;30.03;18.87;;;;;;;14.00;100.00;99740.34;1489238;87;22372;-75
2023/10/15 01:35:38;;;;;;;37.60;19.07;;;;;;;14.05;100.00;99739.79;1488853;87;22380;-75
2023/10/15 01:38:11;;;;;;;27.30;18.97;;;;;;;14.12;100.00;99731.88;1478040;87;21499;-75
2023/10/15 01:40:44;;;;;;;30.77;18.70;;;;;;;14.17;100.00;99727.64;1480702;87;21463;-76
2023/10/15 01:43:17;;;;;;;31.53;18.43;;;;;;;14.23;100.00;99728.73;1487862;87;22968;-76
2023/10/15 01:45:47;;;;;;;33.43;20.23;;;;;;;14.27;100.00;99727.36;1482321;88;21647;-76
2023/10/15 01:48:18;;;;;;;53.03;22.73;;;;;;;14.31;100.00;99727.28;1481862;88;21478;-76
2023/10/15 01:50:49;;;;;;;34.10;19.37;;;;;;;14.36;100.00;99728.88;1479737;88;21564;-76
2023/10/15 01:53:13;;;;;;;33.13;19.30;;;;;;;14.40;100.00;99723.48;1476563;88;21456;-75
2023/10/15 01:55:52;;;;;;;27.13;17.77;;;;;;;14.45;100.00;99730.40;1481780;87;21463;-75
2023/10/15 01:58:12;;;;;;;25.53;18.87;;;;;;;14.52;100.00;99737.66;1484822;87;21559;-76
2023/10/15 02:00:43;;;;;;;31.50;17.60;;;;;;;14.57;100.00;99732.59;1472792;88;21618;-76
2023/10/15 02:03:10;;;;;;;26.40;16.20;;;;;;;14.62;100.00;99727.02;1468532;87;21485;-78
2023/10/15 02:05:43;;;;;;;24.15;15.53;;;;;;;14.70;100.00;99738.53;1469076;87;22477;-76
2023/10/15 02:08:22;;;;;;;25.33;14.80;;;;;;;14.73;100.00;99735.00;1463770;88;21456;-77
2023/10/15 02:10:47;;;;;;;22.43;14.87;;;;;;;14.78;100.00;99731.75;1482467;87;21449;-76
2023/10/15 02:13:17;;;;;;;20.83;13.20;;;;;;;14.79;100.00;99730.23;1476739;87;22403;-76
2023/10/15 02:15:44;;;;;;;25.77;12.40;;;;;;;14.76;100.00;99726.63;1479828;87;21563;-75
2023/10/15 02:18:17;;;;;;;13.43;9.33;;;;;;;14.77;100.00;99719.45;1469061;87;21434;-75
2023/10/15 02:23:20;;;;;;;7.80;5.77;;;;;;;14.75;100.00;99719.63;1471985;88;21728;-76
2023/10/15 02:25:58;;;;;;;6.43;3.93;;;;;;;14.72;100.00;99724.53;1473443;87;21708;-76
2023/10/15 02:28:26;;;;;;;3.53;2.30;;;;;;;14.64;100.00;99717.48;1472057;88;21456;-75
2023/10/15 02:31:14;;;;;;;4.73;2.53;;;;;;;14.58;100.00;99723.58;1474408;87;21669;-75
2023/10/15 02:33:29;;;;;;;3.30;1.83;;;;;;;14.54;100.00;99730.31;1472677;87;22931;-75
2023/10/15 02:35:59;;;;;;;1.90;1.43;;;;;;;14.51;100.00;99728.00;1473688;87;21471;-75
2023/10/15 02:38:33;;;;;;;4.43;1.90;;;;;;;14.45;100.00;99738.39;1477599;87;21612;-75
2023/10/15 02:41:05;;;;;;;3.30;1.90;;;;;;;14.40;100.00;99750.61;1470777;87;23013;-76
2023/10/15 02:43:40;;;;;;;2.17;1.50;;;;;;;14.42;100.00;99749.41;1483075;88;22359;-77
2023/10/15 02:46:47;;;;;;;3.20;1.70;;;;;;;14.39;100.00;99748.46;1481358;87;22395;-77
2023/10/15 02:48:41;;;;;;;5.00;1.50;;;;;;;14.37;100.00;99747.81;1467693;88;21615;-77
2023/10/15 02:51:08;;;;;;;1.10;0.80;;;;;;;14.36;100.00;99742.19;1482119;87;21471;-76
2023/10/15 02:53:40;;;;;;;4.70;1.37;;;;;;;14.33;100.00;99743.08;1488173;88;21492;-77
2023/10/15 02:56:12;;;;;;;1.07;0.90;;;;;;;14.18;100.00;99745.76;1471499;88;21614;-77
2023/10/15 02:58:42;;;;;;;3.53;0.87;;;;;;;14.15;100.00;99744.80;1487587;87;22321;-76
2023/10/15 03:01:17;;;;;;;2.23;1.20;;;;;;;14.05;100.00;99751.77;1470575;88;22388;-76
2023/10/15 03:03:49;;;;;;;3.37;0.93;;;;;;;13.98;100.00;99755.69;1489194;88;21463;-76
2023/10/15 03:06:34;;;;;;;1.67;0.80;;;;;;;13.89;100.00;99747.46;1487871;88;21476;-78
2023/10/15 03:08:59;;;;;;;1.53;1.03;;;;;;;13.86;100.00;99746.50;1482990;87;21484;-77
2023/10/15 03:11:31;;;;;;;5.63;0.93;;;;;;;13.88;100.00;99752.47;1491413;87;21455;-76
2023/10/15 03:13:54;;;;;;;1.53;0.70;;;;;;;13.77;100.00;99758.26;1478358;87;21500;-77
2023/10/15 03:16:29;;;;;;;1.67;0.87;;;;;;;13.76;100.00;99765.92;1487033;88;21632;-75
2023/10/15 03:18:56;;;;;;;1.47;0.90;;;;;;;13.72;100.00;99773.94;1497422;88;21515;-76
2023/10/15 03:21:26;;;;;;;2.17;1.60;;;;;;;13.73;100.00;99771.62;1482748;87;21441;-76
2023/10/15 03:23:56;;;;;;;4.70;1.12;;;;;;;13.58;100.00;99770.77;1475617;87;21419;-75
2023/10/15 03:26:24;;;;;;;6.10;1.77;;;;;;;13.41;100.00;99766.16;1457574;89;21386;-76
2023/10/15 03:28:51;;;;;;;1.90;1.10;;;;;;;13.42;100.00;99770.45;1453389;89;21385;-75
2023/10/15 03:31:25;;;;;;;3.03;0.80;;;;;;;13.32;100.00;99785.32;1432009;91;21632;-76
2023/10/15 03:34:28;;;;;;;1.20;1.10;;;;;;;13.17;100.00;99796.40;1437946;90;21680;-77
2023/10/15 03:36:30;;;;;;;1.53;1.00;;;;;;;13.13;100.00;99800.44;1429327;91;21489;-77
2023/10/15 03:38:57;;;;;;;2.50;1.30;;;;;;;13.00;100.00;99806.33;1448222;90;21464;-77
2023/10/15 03:41:39;;;;;;;2.30;1.30;;;;;;;12.96;100.00;99813.84;1431069;91;21481;-78
2023/10/15 03:44:02;;;;;;;3.23;1.83;;;;;;;12.77;100.00;99819.61;1441899;90;21620;-75
2023/10/15 03:46:25;;;;;;;8.93;1.90;;;;;;;12.59;100.00;99823.38;1439165;91;22214;-76
2023/10/15 03:48:53;;;;;;;3.83;2.10;;;;;;;12.45;100.00;99829.44;1440993;90;21413;-76
2023/10/15 03:51:23;;;;;;;5.40;1.43;;;;;;;12.36;100.00;99829.16;1436982;91;22473;-77
2023/10/15 03:53:50;;;;;;;7.22;1.65;;;;;;;12.35;100.00;99837.62;1468562;88;22307;-76
2023/10/15 03:56:27;;;;;;;2.97;1.57;;;;;;;12.26;100.00;99839.17;1475590;87;21521;-76
2023/10/15 03:58:51;;;;;;;7.30;2.77;;;;;;;12.05;100.00;99837.08;1477685;87;22072;-76
2023/10/15 04:01:20;;;;;;;7.33;1.93;;;;;;;11.97;100.00;99843.27;1470188;87;22417;-77
2023/10/15 04:03:49;;;;;;;7.27;1.50;;;;;;;11.85;100.00;99855.17;1470742;88;22602;-79
2023/10/15 04:06:18;;;;;;;4.33;1.50;;;;;;;11.85;100.00;99852.52;1467353;87;21515;-79
2023/10/15 04:11:44;;;;;;;3.43;2.00;;;;;;;11.69;100.00;99863.50;1471268;87;21612;-79
2023/10/15 04:16:46;;;;;;;4.07;1.47;;;;;;;11.66;100.00;99845.79;1468707;87;21508;-78
2023/10/15 04:19:19;;;;;;;3.37;1.63;;;;;;;11.69;100.00;99844.12;1472517;88;21582;-76
2023/10/15 04:21:47;;;;;;;4.37;1.23;;;;;;;11.67;100.00;99853.55;1473347;88;21412;-77
2023/10/15 04:24:14;;;;;;;2.57;1.20;;;;;;;11.64;100.00;99861.84;1469358;88;21426;-77
2023/10/15 04:26:42;;;;;;;3.07;1.53;;;;;;;11.65;100.00;99859.55;1482006;88;21559;-77
2023/10/15 04:29:16;;;;;;;7.10;1.93;;;;;;;11.65;100.00;99870.15;1475475;87;22143;-77
2023/10/15 04:32:10;;;;;;;7.77;2.37;;;;;;;11.60;100.00;99872.47;1478858;87;22402;-77
2023/10/15 04:34:18;;;;;;;7.27;2.70;;;;;;;11.52;100.00;99880.42;1466451;88;21622;-76
2023/10/15 04:36:43;;;;;;;4.67;1.60;;;;;;;11.47;100.00;99893.34;1465255;88;21515;-76
2023/10/15 04:39:13;;;;;;;5.07;1.93;;;;;;;11.47;100.00;99902.61;1474864;87;21493;-76
2023/10/15 04:41:40;;;;;;;4.07;1.70;;;;;;;11.47;100.00;99901.28;1477433;87;21442;-76
2023/10/15 04:44:25;;;;;;;6.17;2.47;;;;;;;11.45;100.00;99905.91;1471564;87;22447;-77
2023/10/15 04:46:41;;;;;;;4.70;1.80;;;;;;;11.43;100.00;99902.63;1472503;87;22478;-76
2023/10/15 04:49:07;;;;;;;4.67;1.70;;;;;;;11.49;100.00;99901.95;1470157;87;21560;-76
2023/10/15 04:51:42;;;;;;;6.00;1.80;;;;;;;11.50;100.00;99914.20;1479222;87;22529;-78
2023/10/15 04:54:02;;;;;;;5.10;2.40;;;;;;;11.44;100.00;99909.56;1470416;88;21521;-78
2023/10/15 04:56:27;;;;;;;5.03;1.60;;;;;;;11.34;100.00;99911.57;1481265;88;21492;-76
2023/10/15 04:58:54;;;;;;;3.77;1.60;;;;;;;11.26;100.00;99915.86;1472152;88;21449;-76
2023/10/15 05:01:20;;;;;;;6.43;2.40;;;;;;;11.27;100.00;99911.38;1480229;88;21551;-76
2023/10/15 05:03:46;;;;;;;4.20;1.60;;;;;;;11.32;100.00;99906.42;1484436;88;21568;-77
2023/10/15 05:06:13;;;;;;;3.47;1.67;;;;;;;11.30;100.00;99903.92;1483888;87;21971;-77
2023/10/15 05:08:40;;;;;;;6.23;2.30;;;;;;;11.21;100.00;99914.19;1477619;88;21559;-76
2023/10/15 05:11:09;;;;;;;6.90;2.37;;;;;;;11.21;100.00;99918.16;1481107;87;21478;-79
2023/10/15 05:13:35;;;;;;;7.47;1.90;;;;;;;11.28;100.00;99924.48;1480113;88;21404;-79
2023/10/15 05:16:02;;;;;;;7.17;2.43;;;;;;;11.30;100.00;99926.45;1473288;88;21426;-78
2023/10/15 05:18:29;;;;;;;7.37;1.97;;;;;;;11.34;100.00;99927.47;1482567;88;21396;-79
2023/10/15 05:20:56;;;;;;;4.67;2.07;;;;;;;11.34;100.00;99922.17;1482140;88;21556;-78
2023/10/15 05:23:27;;;;;;;6.20;2.30;;;;;;;11.30;100.00;99922.47;1478059;87;21508;-78
2023/10/15 05:25:50;;;;;;;5.83;2.63;;;;;;;11.28;100.00;99921.00;1486332;87;21456;-78
2023/10/15 05:28:16;;;;;;;4.53;2.13;;;;;;;11.28;100.00;99932.42;1465263;88;21389;-77
2023/10/15 05:30:43;;;;;;;5.57;1.80;;;;;;;11.28;100.00;99943.02;1484175;87;21543;-78
2023/10/15 05:33:09;;;;;;;8.27;4.33;;;;;;;11.34;100.00;99960.58;1485523;87;21536;-76
2023/10/15 05:35:37;;;;;;;9.30;3.87;;;;;;;11.39;100.00;99974.14;1485098;88;21447;-76
2023/10/15 05:38:08;;;;;;;8.77;3.20;;;;;;;11.47;100.00;99976.30;1486121;87;22090;-76
2023/10/15 05:40:32;;;;;;;6.17;2.23;;;;;;;11.56;100.00;99969.69;1476472;88;22564;-76
2023/10/15 05:42:58;;;;;;;8.60;2.30;;;;;;;11.55;100.00;99966.22;1482612;87;21463;-76
2023/10/15 05:45:24;;;;;;;9.77;3.33;;;;;;;11.52;100.00;99965.22;1487610;88;21434;-76
2023/10/15 05:47:51;;;;;;;3.97;2.00;;;;;;;11.44;100.00;99959.41;1479709;87;21589;-75
2023/10/15 05:50:17;;;;;;;6.37;2.33;;;;;;;11.41;100.00;99962.89;1478276;88;21507;-77
2023/10/15 05:52:44;;;;;;;6.33;2.40;;;;;;;11.43;100.00;99951.64;1482466;88;21524;-77
2023/10/15 05:55:12;;;;;;;4.53;1.73;;;;;;;11.45;100.00;99943.02;1464314;88;21471;-75
2023/10/15 05:57:39;;;;;;;6.40;2.53;;;;;;;11.45;100.00;99943.02;1475349;88;22706;-77
2023/10/15 06:00:18;;;;;;;5.93;3.00;;;;;;;11.45;100.00;99932.41;1468676;87;21367;-77
2023/10/15 06:02:50;;;;;;;3.73;1.87;;;;;;;11.45;100.00;99933.73;1475819;88;21685;-76
2023/10/15 06:05:17;;;;;;;8.37;2.90;;;;;;;11.47;100.00;99920.66;1480342;88;21339;-75
2023/10/15 06:07:44;;;;;;;8.00;2.90;;;;;;;11.50;100.00;99923.48;1476327;88;22241;-75
2023/10/15 06:10:11;;;;;;;8.83;2.63;;;;;;;11.52;100.00;99914.37;1482719;87;21441;-75
2023/10/15 06:12:39;;;;;;;15.93;2.90;;;;;;;11.56;100.00;99921.48;1468606;88;21448;-76
2023/10/15 06:15:07;;;;;;;10.23;3.10;;;;;;;11.56;100.00;99910.88;1477304;87;21462;-75
2023/10/15 06:17:34;;;;;;;7.53;2.57;;;;;;;11.53;100.00;99905.91;1473914;87;21456;-75
2023/10/15 06:20:12;;;;;;;9.07;3.43;;;;;;;11.53;100.00;99893.98;1477785;87;22335;-75
2023/10/15 06:22:45;;;;;;;8.50;2.47;;;;;;;11.49;100.00;99892.69;1465705;88;21684;-75
2023/10/15 06:25:13;;;;;;;6.67;2.03;;;;;;;11.52;100.00;99872.47;1476306;88;21486;-75
2023/10/15 06:27:40;;;;;;;5.23;1.97;;;;;;;11.48;100.00;99873.81;1471105;88;21411;-76
2023/10/15 06:30:19;;;;;;;6.77;1.80;;;;;;;11.43;100.00;99877.45;1479356;88;21626;-77
2023/10/15 06:32:38;;;;;;;6.40;2.10;;;;;;;11.44;100.00;99873.80;1470644;87;21530;-76
2023/10/15 06:35:05;;;;;;;6.17;2.30;;;;;;;11.41;100.00;99879.43;1475835;88;21405;-77
2023/10/15 06:37:33;;;;;;;8.37;2.60;;;;;;;11.40;100.00;99884.41;1472802;87;21560;-76
2023/10/15 06:39:59;;;;;;;8.23;2.20;;;;;;;11.34;100.00;99898.33;1469832;88;21464;-77
2023/10/15 06:42:26;;;;;;;7.53;2.90;;;;;;;11.28;100.00;99892.69;1474591;87;22536;-78
2023/10/15 06:44:53;;;;;;;6.70;2.23;;;;;;;11.29;100.00;99900.95;1473737;87;21412;-77
2023/10/15 06:47:19;;;;;;;10.97;2.33;;;;;;;11.28;100.00;99919.18;1475962;88;21441;-77
2023/10/15 06:49:45;;;;;;;5.23;2.57;;;;;;;11.36;100.00;99930.76;1462607;88;22960;-75
2023/10/15 06:52:13;;;;;;;7.30;3.47;;;;;;;11.35;100.00;99937.06;1473074;88;21404;-76
2023/10/15 06:54:39;;;;;;;7.70;3.23;;;;;;;11.40;100.00;99945.35;1467846;87;22448;-77
2023/10/15 06:57:07;;;;;;;10.60;3.17;;;;;;;11.41;100.00;99931.92;1475079;87;21478;-76
2023/10/15 06:59:33;;;;;;;8.00;2.13;;;;;;;11.42;100.00;99923.47;1465332;87;21493;-77
2023/10/15 07:01:59;;;;;;;5.47;2.30;;;;;;;11.42;100.00;99904.92;1479501;88;21536;-75
2023/10/15 07:04:27;;;;;;;8.57;2.70;;;;;;;11.46;100.00;99890.36;1471957;87;21552;-76
2023/10/15 07:06:53;;;;;;;5.87;2.40;;;;;;;11.47;100.00;99890.69;1465742;88;23043;-76
2023/10/15 07:09:19;;;;;;;5.87;3.03;;;;;;;11.49;100.00;99904.61;1471684;88;22351;-76
2023/10/15 07:11:45;;;;;;;11.50;2.90;;;;;;;11.49;100.00;99933.76;1474466;87;21493;-76
2023/10/15 07:14:12;;;;;;;6.33;2.60;;;;;;;11.54;100.00;99951.32;1460615;88;21441;-77
2023/10/15 07:16:40;;;;;;;8.33;3.23;;;;;;;11.56;100.00;99959.91;1473472;87;21449;-75
2023/10/15 07:19:06;;;;;;;9.97;3.47;;;;;;;11.59;100.00;99966.20;1477048;87;21449;-76
2023/10/15 07:21:32;;;;;;;10.80;3.67;;;;;;;11.65;100.00;99962.92;1469287;87;22315;-75
2023/10/15 07:23:58;;;;;;;7.27;2.87;;;;;;;11.64;100.00;99957.27;1477783;87;21677;-76
2023/10/15 07:26:25;;;;;;;8.37;2.70;;;;;;;11.65;100.00;99945.69;1473774;88;21425;-76
2023/10/15 07:28:51;;;;;;;4.27;2.40;;;;;;;11.68;100.00;99946.69;1477370;87;21702;-75
2023/10/15 07:31:17;;;;;;;10.07;2.87;;;;;;;11.72;100.00;99955.95;1469392;88;21441;-77
2023/10/15 07:33:44;;;;;;;7.37;2.70;;;;;;;11.74;100.00;99976.50;1473819;87;21426;-77
2023/10/15 07:36:11;;;;;;;6.77;2.40;;;;;;;11.72;100.00;99978.48;1470808;88;21515;-76
2023/10/15 07:38:37;;;;;;;8.70;2.67;;;;;;;11.72;100.00;99989.59;1473716;87;21500;-76
2023/10/15 07:41:05;;;;;;;6.03;2.77;;;;;;;11.75;100.00;99982.12;1467853;88;21456;-76
2023/10/15 07:43:32;;;;;;;9.13;2.87;;;;;;;11.75;100.00;99976.81;1474319;87;22380;-75
2023/10/15 07:45:59;;;;;;;5.37;2.47;;;;;;;11.77;100.00;99963.41;1470850;87;21655;-76
2023/10/15 07:48:25;;;;;;;11.53;3.83;;;;;;;11.73;100.00;99960.23;1470227;87;21470;-76
2023/10/15 07:50:51;;;;;;;6.37;2.77;;;;;;;11.71;100.00;99948.17;1467076;88;22721;-75
2023/10/15 07:53:17;;;;;;;7.60;3.23;;;;;;;11.69;100.00;99946.18;1480361;88;22491;-76
2023/10/15 07:55:43;;;;;;;7.77;3.23;;;;;;;11.63;100.00;99955.63;1484670;88;21552;-76
2023/10/15 07:58:09;;;;;;;12.80;4.23;;;;;;;11.65;100.00;99956.30;1480408;87;21483;-78
2023/10/15 08:00:36;;;;;;;8.80;3.20;;;;;;;11.67;100.00;99956.11;1486734;88;21521;-76
2023/10/15 08:03:07;;;;;;;9.80;4.07;;;;;;;11.67;100.00;99967.53;1487422;87;21426;-75
2023/10/15 08:05:31;;;;;;;5.93;3.80;;;;;;;11.71;100.00;99972.86;1478553;87;21647;-77
2023/10/15 08:07:58;;;;;;;6.17;2.97;;;;;;;11.72;100.00;99971.85;1481410;87;21434;-76
2023/10/15 08:10:25;;;;;;;5.83;2.70;;;;;;;11.70;100.00;99984.44;1474482;88;22541;-77
2023/10/15 08:12:52;;;;;;;7.67;3.77;;;;;;;11.72;100.00;99985.11;1483961;88;21598;-77
2023/10/15 08:15:19;;;;;;;9.53;3.47;;;;;;;11.71;100.00;99988.77;1471524;88;21528;-76
2023/10/15 08:17:46;;;;;;;11.50;4.40;;;;;;;11.78;100.00;100002.67;1488959;87;21611;-77
2023/10/15 08:20:13;;;;;;;7.67;2.60;;;;;;;11.74;100.00;100020.24;1483396;88;21641;-77
2023/10/15 08:22:40;;;;;;;8.13;3.40;;;;;;;11.71;100.00;100017.10;1484365;88;21426;-77
2023/10/15 08:25:14;;;;;;;5.50;2.90;;;;;;;11.71;100.00;100017.10;1490037;88;21404;-76
2023/10/15 08:27:44;;;;;;;8.40;3.10;;;;;;;11.73;100.00;100021.22;1483910;87;22419;-76
2023/10/15 08:30:12;;;;;;;9.47;3.60;;;;;;;11.73;100.00;100021.22;1478999;87;22497;-76
2023/10/15 08:32:46;;;;;;;7.33;3.23;;;;;;;11.73;100.00;100023.87;1405294;88;21382;-76
2023/10/15 08:35:14;;;;;;;9.27;3.87;;;;;;;11.71;100.00;100021.90;1404918;88;21389;-76
2023/10/15 08:37:42;;;;;;;9.17;3.80;;;;;;;11.73;100.00;100014.59;1404551;87;21504;-76
2023/10/15 08:40:15;;;;;;;8.17;3.30;;;;;;;11.79;100.00;100013.60;1405679;87;22211;-76
2023/10/15 08:42:42;;;;;;;7.80;2.80;;;;;;;11.79;100.00;100007.80;1403275;88;21322;-77
2023/10/15 08:45:09;;;;;;;10.57;3.97;;;;;;;11.84;100.00;100003.34;1569694;87;21345;-77
2023/10/15 08:47:36;;;;;;;19.37;3.47;;;;;;;11.84;100.00;99995.38;1464506;87;22889;-76
2023/10/15 08:50:03;;;;;;;8.63;3.80;;;;;;;11.83;100.00;100005.16;1481875;87;21564;-76
2023/10/15 08:52:31;;;;;;;7.30;2.60;;;;;;;11.86;100.00;99993.44;1471296;88;21515;-76
2023/10/15 08:55:01;;;;;;;8.10;3.47;;;;;;;11.85;100.00;99989.08;1476302;87;21627;-76
2023/10/15 08:57:30;;;;;;;12.28;4.90;;;;;;;11.90;100.00;99994.24;1471866;87;21698;-76
2023/10/15 08:59:57;;;;;;;15.63;3.80;;;;;;;11.88;100.00;100007.33;1469042;87;21390;-77
2023/10/15 09:02:24;;;;;;;19.70;4.73;;;;;;;11.88;100.00;100015.28;1475116;87;21604;-77
2023/10/15 09:04:52;;;;;;;11.80;4.00;;;;;;;11.90;100.00;100006.67;1464599;88;21425;-76
2023/10/15 09:07:19;;;;;;;13.30;4.70;;;;;;;11.88;100.00;100004.68;1469547;88;22126;-77
2023/10/15 09:09:46;;;;;;;17.60;5.60;;;;;;;11.91;100.00;100002.55;1473196;87;21478;-77
2023/10/15 09:12:12;;;;;;;12.27;3.90;;;;;;;11.92;100.00;99988.78;1478386;88;21593;-77
2023/10/15 09:14:48;;;;;;;7.47;3.70;;;;;;;11.88;100.00;99988.30;1474141;87;21493;-77
2023/10/15 09:17:17;;;;;;;11.33;3.60;;;;;;;11.93;100.00;99983.80;1470370;87;21420;-76
2023/10/15 09:19:48;;;;;;;7.40;3.00;;;;;;;11.93;100.00;99990.43;1395126;88;21508;-76
2023/10/15 09:22:15;;;;;;;7.23;2.93;;;;;;;11.94;100.00;99993.44;1534700;90;21342;-77
2023/10/15 09:24:42;;;;;;;10.90;3.60;;;;;;;11.88;100.00;100000.23;1366949;91;21704;-76
2023/10/15 09:27:09;;;;;;;7.03;3.87;;;;;;;11.88;100.00;99994.08;1404268;88;21515;-76
2023/10/15 09:29:35;;;;;;;11.83;4.90;;;;;;;11.88;100.00;99992.75;1477364;87;21756;-75
2023/10/15 09:32:04;;;;;;;6.63;2.70;;;;;;;11.89;100.00;100001.05;1472448;88;21619;-75
2023/10/15 09:34:33;;;;;;;9.07;3.43;;;;;;;11.86;100.00;100001.39;1469402;87;21627;-77
2023/10/15 09:37:01;;;;;;;10.48;3.08;;;;;;;11.84;100.00;100008.64;1475440;88;21456;-76
2023/10/15 09:39:29;;;;;;;8.77;4.33;;;;;;;11.82;100.00;100002.66;1478284;88;21456;-77
2023/10/15 09:42:05;;;;;;;11.17;3.73;;;;;;;11.89;100.00;100011.66;1396065;87;21449;-76
2023/10/15 09:44:32;;;;;;;6.87;2.60;;;;;;;11.94;100.00;100011.49;1559021;88;21295;-77
2023/10/15 09:47:01;;;;;;;9.13;2.63;;;;;;;11.93;100.00;100007.67;1398019;88;21449;-77
2023/10/15 09:49:33;;;;;;;7.13;2.40;;;;;;;11.99;100.00;100022.91;1395735;87;21449;-77
2023/10/15 09:52:10;;;;;;;10.20;2.60;;;;;;;12.01;100.00;100035.52;1550777;88;21499;-77
2023/10/15 09:54:37;;;;;;;7.47;2.47;;;;;;;12.02;100.00;100041.14;1400470;88;21389;-77
2023/10/15 09:57:06;;;;;;;11.97;3.53;;;;;;;12.02;100.00;100031.86;1403198;87;21369;-77
2023/10/15 09:59:32;;;;;;;11.67;2.50;;;;;;;12.04;100.00;100032.53;1395831;87;21502;-77
2023/10/15 10:02:07;;;;;;;8.17;2.63;;;;;;;12.03;100.00;100038.84;1404358;87;21397;-76
2023/10/15 10:05:16;;;;;;;9.57;2.70;;;;;;;11.99;100.00;100047.28;1395028;89;21515;-77
2023/10/15 10:08:08;;;;;;;8.27;3.23;;;;;;;11.94;100.00;100049.95;1552572;88;21478;-77
2023/10/15 10:11:06;;;;;;;13.60;3.00;;;;;;;11.94;100.00;100049.95;1457185;89;21718;-77
2023/10/15 10:13:49;;;;;;;7.57;2.50;;;;;;;11.93;100.00;100048.77;1555995;87;21405;-78
2023/10/15 10:16:24;;;;;;;9.20;3.00;;;;;;;11.95;100.00;100060.05;1395242;89;21368;-77
2023/10/15 10:18:51;;;;;;;7.57;3.47;;;;;;;11.97;100.00;100068.68;1388006;89;22184;-77
2023/10/15 10:21:17;;;;;;;10.17;3.43;;;;;;;12.00;100.00;100067.50;1391300;89;21398;-77
2023/10/15 10:23:44;;;;;;;14.17;4.03;;;;;;;12.03;100.00;100066.69;1392071;89;21487;-77
2023/10/15 10:26:14;;;;;;;8.73;4.67;;;;;;;12.05;100.00;100063.86;1397789;87;21339;-76
2023/10/15 10:28:41;;;;;;;6.22;3.15;;;;;;;11.99;100.00;100050.76;1398161;87;21501;-78
2023/10/15 10:31:07;;;;;;;8.73;3.53;;;;;;;11.95;100.00;100040.16;1398297;88;21493;-78
2023/10/15 10:33:49;;;;;;;8.50;3.50;;;;;;;11.90;100.00;100031.87;1398504;88;21412;-78
2023/10/15 10:36:19;;;;;;;10.67;3.03;;;;;;;11.81;100.00;100023.05;1520275;89;22200;-78
2023/10/15 10:38:56;;;;;;;8.07;3.47;;;;;;;11.74;100.00;100003.02;1530663;90;22229;-78
2023/10/15 10:41:43;;;;;;;10.93;3.40;;;;;;;11.70;100.00;100006.97;1535077;88;21531;-77
2023/10/15 10:44:28;;;;;;;7.97;2.90;;;;;;;11.71;100.00;100009.15;1559123;87;21572;-77
2023/10/15 10:46:58;;;;;;;10.40;3.30;;;;;;;11.66;100.00;99999.03;1402689;88;22263;-77
2023/10/15 10:49:31;;;;;;;9.58;3.22;;;;;;;11.74;100.00;99987.10;1394438;87;21354;-77
2023/10/15 10:52:14;;;;;;;6.60;2.43;;;;;;;11.74;100.00;99987.10;1405353;87;21582;-77
2023/10/15 10:54:36;;;;;;;11.77;3.43;;;;;;;11.77;100.00;99981.12;1476145;88;21658;-77
2023/10/15 10:57:06;;;;;;;18.57;4.10;;;;;;;11.75;100.00;99967.55;1481537;88;21700;-77
2023/10/15 10:59:31;;;;;;;9.00;2.73;;;;;;;11.78;100.00;99948.33;1479271;88;22216;-76
2023/10/15 11:01:57;;;;;;;9.90;4.13;;;;;;;11.70;100.00;99940.70;1484931;87;22343;-77
2023/10/15 11:04:25;;;;;;;10.30;3.53;;;;;;;11.77;100.00;99935.58;1484946;87;21470;-77
2023/10/15 11:06:51;;;;;;;8.97;3.47;;;;;;;11.70;100.00;99944.67;1485079;88;21536;-77
2023/10/15 11:09:22;;;;;;;10.10;2.90;;;;;;;11.76;100.00;99945.83;1479999;88;21961;-77
2023/10/15 11:11:53;;;;;;;12.00;3.83;;;;;;;11.73;100.00;99946.98;1477861;87;21618;-77
2023/10/15 11:14:27;;;;;;;7.70;3.02;;;;;;;11.69;100.00;99952.30;1468987;88;21552;-77
2023/10/15 11:16:56;;;;;;;11.57;3.43;;;;;;;11.72;100.00;99947.99;1408437;87;21537;-77
2023/10/15 11:19:28;;;;;;;9.50;3.27;;;;;;;11.78;100.00;99953.63;1404085;88;21489;-77
2023/10/15 11:21:54;;;;;;;11.57;2.77;;;;;;;11.84;100.00;99943.68;1569682;87;21687;-77
2023/10/15 11:24:24;;;;;;;11.93;4.10;;;;;;;11.92;100.00;99952.98;1407388;87;21375;-77
2023/10/15 11:26:54;;;;;;;10.00;3.17;;;;;;;11.92;100.00;99973.70;1402970;87;21501;-76
2023/10/15 11:29:19;;;;;;;8.90;2.80;;;;;;;11.96;100.00;99975.51;1568963;88;21634;-77
2023/10/15 11:31:50;;;;;;;12.20;2.63;;;;;;;11.97;100.00;99977.19;1565796;88;21396;-76
2023/10/15 11:34:21;;;;;;;8.55;2.98;;;;;;;11.94;100.00;99984.97;1380993;91;21438;-77
2023/10/15 11:36:49;;;;;;;7.20;3.90;;;;;;;11.92;100.00;99995.41;1378349;90;22457;-76
2023/10/15 11:39:37;;;;;;;10.77;2.50;;;;;;;11.86;100.00;100006.69;1363604;91;21319;-77